Time;durP1;ratioP1;P1;durP2;ratioP2;P2;SDS_P1;SDS_P2;PMS_P1;PMS_P2;Temp;Humidity;BMP_temperature;BMP_pressure;BME280_temperature;BME280_humidity;BME280_pressure;Samples;Min_cycle;Max_cycle;Signal;HPM_P1;HPM_P2
2022/01/07 00:01:38;;;;;;;14.13;5.78;;;3.90;99.90;;;;;;5116258;27;20043;-69
2022/01/07 00:04:03;;;;;;;14.35;5.22;;;3.90;99.90;;;;;;5100213;27;20039;-69
2022/01/07 00:06:29;;;;;;;14.90;6.03;;;3.80;99.90;;;;;;5099396;27;20475;-69
2022/01/07 00:08:55;;;;;;;13.18;4.90;;;3.90;99.90;;;;;;5100029;27;20046;-68
2022/01/07 00:11:21;;;;;;;15.75;5.13;;;3.90;99.90;;;;;;5116517;27;20362;-69
2022/01/07 00:13:47;;;;;;;15.88;4.97;;;4.00;99.90;;;;;;5116361;27;20375;-68
2022/01/07 00:16:13;;;;;;;14.10;5.03;;;4.00;99.90;;;;;;5098963;27;20451;-70
2022/01/07 00:18:43;;;;;;;12.02;5.13;;;4.00;99.90;;;;;;5116917;27;20059;-69
2022/01/07 00:21:10;;;;;;;12.35;4.85;;;4.00;99.90;;;;;;5099607;28;20084;-69
2022/01/07 00:23:35;;;;;;;11.75;4.88;;;4.00;99.90;;;;;;5116450;27;20043;-68
2022/01/07 00:26:01;;;;;;;11.45;5.28;;;4.00;99.90;;;;;;5116186;28;20050;-69
2022/01/07 00:28:27;;;;;;;13.18;5.20;;;4.00;99.90;;;;;;5116584;28;20515;-69
2022/01/07 00:30:52;;;;;;;14.40;4.70;;;4.00;99.90;;;;;;5116768;28;20031;-69
2022/01/07 00:33:18;;;;;;;12.25;5.38;;;4.00;99.90;;;;;;5099778;27;20043;-70
2022/01/07 00:35:44;;;;;;;11.43;4.47;;;4.00;99.90;;;;;;5116147;28;20069;-69
2022/01/07 00:38:09;;;;;;;19.67;4.65;;;4.00;99.90;;;;;;5116427;28;20508;-68
2022/01/07 00:40:35;;;;;;;11.63;4.38;;;3.90;99.90;;;;;;5116042;28;20042;-68
2022/01/07 00:43:01;;;;;;;9.43;4.18;;;4.00;99.90;;;;;;5116259;28;20092;-70
2022/01/07 00:45:26;;;;;;;13.30;4.72;;;4.00;99.90;;;;;;5116217;28;20468;-68
2022/01/07 00:47:54;;;;;;;10.95;3.80;;;3.90;99.90;;;;;;5116938;28;20122;-69
2022/01/07 00:50:21;;;;;;;12.73;4.57;;;3.90;99.90;;;;;;5099122;28;20067;-68
2022/01/07 00:52:47;;;;;;;13.70;4.65;;;4.00;99.90;;;;;;5116106;28;20184;-68
2022/01/07 00:55:14;;;;;;;11.45;4.57;;;3.90;99.90;;;;;;5091283;28;20040;-68
2022/01/07 00:57:40;;;;;;;10.95;4.10;;;3.80;99.90;;;;;;5113432;28;20078;-68
2022/01/07 01:00:10;;;;;;;14.40;4.50;;;3.90;99.90;;;;;;5116764;28;20126;-68
2022/01/07 01:02:35;;;;;;;11.10;4.75;;;3.80;99.90;;;;;;5116504;28;20128;-68
2022/01/07 01:05:03;;;;;;;10.57;4.28;;;3.90;99.90;;;;;;5116398;28;20063;-68
2022/01/07 01:07:29;;;;;;;11.90;5.03;;;3.80;99.90;;;;;;5099316;28;20043;-67
2022/01/07 01:09:55;;;;;;;13.90;4.90;;;3.70;99.90;;;;;;5116314;28;20057;-67
2022/01/07 01:12:20;;;;;;;13.65;5.35;;;3.70;99.90;;;;;;5115638;28;20507;-68
2022/01/07 01:14:46;;;;;;;12.85;4.63;;;3.60;99.90;;;;;;5115841;28;20149;-68
2022/01/07 01:17:12;;;;;;;11.85;5.00;;;3.70;99.90;;;;;;5098787;28;20333;-68
2022/01/07 01:19:37;;;;;;;10.85;5.38;;;3.60;99.90;;;;;;5115960;28;20504;-68
2022/01/07 01:22:05;;;;;;;13.32;5.28;;;3.50;99.90;;;;;;5114947;28;20363;-69
2022/01/07 01:24:31;;;;;;;13.88;5.43;;;3.40;99.90;;;;;;5115483;28;20317;-68
2022/01/07 01:26:57;;;;;;;12.55;5.63;;;3.40;99.90;;;;;;5115033;28;20031;-66
2022/01/07 01:29:22;;;;;;;16.00;6.20;;;3.30;99.90;;;;;;5115463;28;20516;-66
2022/01/07 01:31:49;;;;;;;12.88;6.53;;;3.30;99.90;;;;;;5115189;28;20039;-69
2022/01/07 01:34:15;;;;;;;14.38;6.15;;;3.10;99.90;;;;;;5115334;28;20035;-69
2022/01/07 01:36:42;;;;;;;11.00;6.03;;;3.20;99.90;;;;;;5115228;28;20118;-70
2022/01/07 01:39:09;;;;;;;15.90;6.05;;;3.20;99.90;;;;;;5115617;28;20363;-68
2022/01/07 01:41:35;;;;;;;18.88;6.30;;;3.10;99.90;;;;;;5114793;28;20043;-68
2022/01/07 01:44:00;;;;;;;12.73;6.22;;;3.10;99.90;;;;;;5115585;28;20172;-69
2022/01/07 01:46:26;;;;;;;13.18;5.75;;;3.10;99.90;;;;;;5116104;27;20463;-69
2022/01/07 01:48:52;;;;;;;16.13;7.05;;;3.10;99.90;;;;;;5118918;27;20047;-68
2022/01/07 01:51:18;;;;;;;12.45;6.90;;;3.10;99.90;;;;;;5118740;27;20049;-69
2022/01/07 01:53:44;;;;;;;13.75;6.60;;;3.10;99.90;;;;;;5102169;27;20116;-69
2022/01/07 01:56:09;;;;;;;16.55;6.72;;;3.00;99.90;;;;;;5118389;27;20100;-68
2022/01/07 01:58:35;;;;;;;12.85;6.60;;;3.10;99.90;;;;;;5119107;27;20038;-70
2022/01/07 02:01:01;;;;;;;14.50;7.38;;;3.10;99.90;;;;;;5118019;27;20071;-69
2022/01/07 02:03:27;;;;;;;17.67;7.10;;;3.10;99.90;;;;;;5101702;27;20042;-69
2022/01/07 02:05:54;;;;;;;14.60;7.68;;;3.00;99.90;;;;;;5101197;27;20375;-68
2022/01/07 02:08:20;;;;;;;15.07;7.68;;;3.00;99.90;;;;;;5101639;27;20175;-68
2022/01/07 02:10:45;;;;;;;15.43;7.43;;;3.00;99.90;;;;;;5118310;27;20054;-68
2022/01/07 02:13:11;;;;;;;16.90;7.63;;;2.90;99.90;;;;;;5101624;27;20154;-68
2022/01/07 02:15:38;;;;;;;16.45;8.43;;;3.00;99.90;;;;;;5117287;27;20047;-69
2022/01/07 02:18:04;;;;;;;12.18;7.30;;;2.90;99.90;;;;;;5118085;27;20601;-69
2022/01/07 02:20:30;;;;;;;14.80;7.95;;;3.00;99.90;;;;;;5118394;27;20467;-69
2022/01/07 02:22:57;;;;;;;15.60;8.13;;;2.90;99.90;;;;;;5118696;27;20039;-68
2022/01/07 02:25:22;;;;;;;15.63;8.55;;;3.00;99.90;;;;;;5118221;27;20031;-70
2022/01/07 02:27:49;;;;;;;14.82;8.25;;;2.90;99.90;;;;;;5118216;27;20444;-69
2022/01/07 02:30:22;;;;;;;16.17;7.75;;;2.90;99.90;;;;;;5117692;27;20460;-69
2022/01/07 02:32:48;;;;;;;18.27;8.07;;;3.00;99.90;;;;;;5118102;27;20043;-68
2022/01/07 02:35:16;;;;;;;16.52;8.05;;;3.00;99.90;;;;;;5118188;27;20084;-69
2022/01/07 02:37:41;;;;;;;16.30;8.60;;;3.00;99.90;;;;;;5101170;27;20452;-69
2022/01/07 02:40:08;;;;;;;18.15;8.70;;;3.00;99.90;;;;;;5118064;27;20043;-68
2022/01/07 02:42:35;;;;;;;12.60;7.70;;;3.00;99.90;;;;;;5118031;27;20432;-69
2022/01/07 02:45:01;;;;;;;16.77;8.20;;;2.90;99.90;;;;;;5117195;27;20035;-69
2022/01/07 02:47:33;;;;;;;11.00;7.47;;;3.00;99.90;;;;;;5117826;27;20035;-69
2022/01/07 02:50:05;;;;;;;16.98;8.38;;;3.00;99.90;;;;;;5100769;27;20057;-69
2022/01/07 02:52:31;;;;;;;14.73;8.95;;;3.00;99.90;;;;;;5101161;27;20042;-69
2022/01/07 02:54:57;;;;;;;15.00;8.18;;;3.00;99.90;;;;;;5099983;27;20130;-69
2022/01/07 02:57:22;;;;;;;14.55;7.72;;;3.00;99.90;;;;;;5100590;27;20035;-70
2022/01/07 02:59:48;;;;;;;13.77;6.80;;;3.00;99.90;;;;;;5117806;27;20048;-69
2022/01/07 03:02:14;;;;;;;16.20;7.75;;;3.10;99.90;;;;;;5117087;27;20031;-69
2022/01/07 03:04:40;;;;;;;12.82;7.22;;;3.10;99.90;;;;;;5100369;27;20458;-69
2022/01/07 03:07:07;;;;;;;15.57;8.07;;;3.10;99.90;;;;;;5116763;27;20035;-69
2022/01/07 03:09:32;;;;;;;13.27;8.10;;;3.10;99.90;;;;;;5117312;27;20412;-70
2022/01/07 03:11:59;;;;;;;14.52;7.15;;;3.10;99.90;;;;;;5117724;27;20198;-69
2022/01/07 03:14:25;;;;;;;12.73;7.45;;;3.10;99.90;;;;;;5100833;27;20074;-70
2022/01/07 03:16:51;;;;;;;12.80;7.55;;;3.20;99.90;;;;;;5099491;27;20474;-70
2022/01/07 03:19:17;;;;;;;17.10;8.23;;;3.10;99.90;;;;;;5117676;27;20035;-69
2022/01/07 03:21:42;;;;;;;13.68;7.38;;;3.10;99.90;;;;;;5100555;27;20067;-70
2022/01/07 03:24:08;;;;;;;12.90;7.25;;;3.20;99.90;;;;;;5117577;27;20490;-69
2022/01/07 03:26:34;;;;;;;13.60;6.95;;;3.10;99.90;;;;;;5116864;27;20065;-70
2022/01/07 03:28:59;;;;;;;13.95;7.65;;;3.10;99.90;;;;;;5100337;27;20091;-70
2022/01/07 03:31:25;;;;;;;12.45;7.03;;;3.10;99.90;;;;;;5117013;27;20038;-70
2022/01/07 03:33:51;;;;;;;11.23;7.05;;;3.20;99.90;;;;;;5116860;27;20085;-70
2022/01/07 03:36:16;;;;;;;11.23;6.65;;;3.20;99.90;;;;;;5087888;28;20047;-70
2022/01/07 03:38:42;;;;;;;13.65;6.75;;;3.20;99.90;;;;;;5080252;28;20043;-70
2022/01/07 03:41:08;;;;;;;9.52;6.25;;;3.20;99.90;;;;;;5079597;28;20040;-70
2022/01/07 03:43:34;;;;;;;11.30;6.38;;;3.20;99.90;;;;;;5079909;28;20035;-70
2022/01/07 03:45:59;;;;;;;11.68;6.97;;;3.10;99.90;;;;;;5106906;27;20130;-69
2022/01/07 03:48:25;;;;;;;13.63;7.43;;;3.20;99.90;;;;;;5116853;27;20456;-69
2022/01/07 03:50:51;;;;;;;11.25;6.38;;;3.20;99.90;;;;;;5099360;27;20423;-69
2022/01/07 03:53:16;;;;;;;14.20;7.22;;;3.10;99.90;;;;;;5116897;27;20083;-69
2022/01/07 03:55:42;;;;;;;11.77;7.00;;;3.20;99.90;;;;;;5109753;28;20047;-67
2022/01/07 03:58:07;;;;;;;11.45;6.25;;;3.20;99.90;;;;;;5079897;28;20051;-68
2022/01/07 04:00:37;;;;;;;10.50;6.35;;;3.20;99.90;;;;;;5079712;28;20806;-68
2022/01/07 04:03:09;;;;;;;8.93;6.40;;;3.20;99.90;;;;;;5096064;28;20040;-68
2022/01/07 04:05:35;;;;;;;13.38;6.65;;;3.30;99.90;;;;;;5102797;27;20147;-68
2022/01/07 04:08:01;;;;;;;12.02;7.10;;;3.20;99.90;;;;;;5099778;27;20565;-68
2022/01/07 04:10:27;;;;;;;13.60;7.20;;;3.20;99.90;;;;;;5116248;27;20035;-68
2022/01/07 04:12:53;;;;;;;12.18;7.00;;;3.20;99.90;;;;;;5116713;27;20039;-69
2022/01/07 04:15:23;;;;;;;8.95;6.25;;;3.20;99.90;;;;;;5098592;27;20107;-67
2022/01/07 04:17:52;;;;;;;11.30;6.47;;;3.20;99.90;;;;;;5116289;27;20043;-67
2022/01/07 04:20:21;;;;;;;10.75;6.40;;;3.20;99.90;;;;;;5116305;27;20030;-68
2022/01/07 04:22:47;;;;;;;12.77;6.30;;;3.20;99.90;;;;;;5116451;28;20598;-68
2022/01/07 04:25:19;;;;;;;8.02;5.72;;;3.20;99.90;;;;;;5114069;28;20039;-68
2022/01/07 04:28:02;;;;;;;12.48;6.70;;;3.20;99.90;;;;;;5096594;28;20138;-69
2022/01/07 04:30:34;;;;;;;9.45;6.35;;;3.10;99.90;;;;;;5095905;28;20104;-68
2022/01/07 04:33:02;;;;;;;10.15;6.10;;;3.20;99.90;;;;;;5096259;28;20082;-68
2022/01/07 04:35:28;;;;;;;10.55;5.93;;;3.20;99.90;;;;;;5100946;28;20066;-68
2022/01/07 04:37:57;;;;;;;11.40;5.80;;;3.20;99.90;;;;;;5134283;28;20468;-68
2022/01/07 04:40:23;;;;;;;10.57;6.30;;;3.20;99.90;;;;;;5117379;28;20031;-68
2022/01/07 04:42:50;;;;;;;10.48;6.30;;;3.20;99.90;;;;;;5116639;28;20480;-68
2022/01/07 04:45:16;;;;;;;7.60;5.30;;;3.20;99.90;;;;;;5095874;28;20066;-67
2022/01/07 04:47:42;;;;;;;10.30;5.70;;;3.20;99.90;;;;;;5078726;28;20421;-69
2022/01/07 04:50:11;;;;;;;9.23;6.15;;;3.20;99.90;;;;;;5095589;28;20093;-68
2022/01/07 04:52:38;;;;;;;9.23;5.32;;;3.20;99.90;;;;;;5095861;28;20035;-68
2022/01/07 04:55:05;;;;;;;12.52;5.50;;;3.20;99.90;;;;;;5079962;28;20122;-68
2022/01/07 04:57:31;;;;;;;9.57;5.70;;;3.20;99.90;;;;;;5116365;28;20071;-69
2022/01/07 04:59:56;;;;;;;8.45;5.35;;;3.20;99.90;;;;;;5115855;28;20097;-69
2022/01/07 05:02:22;;;;;;;8.82;5.10;;;3.20;99.90;;;;;;5115664;28;20050;-69
2022/01/07 05:04:48;;;;;;;8.13;5.25;;;3.20;99.90;;;;;;5098876;28;20027;-70
2022/01/07 05:07:14;;;;;;;7.85;4.97;;;3.20;99.90;;;;;;5098823;28;20039;-70
2022/01/07 05:09:39;;;;;;;9.45;5.50;;;3.20;99.90;;;;;;5099566;28;20386;-69
2022/01/07 05:12:05;;;;;;;6.57;5.15;;;3.20;99.90;;;;;;5116275;28;20129;-70
2022/01/07 05:14:31;;;;;;;9.43;5.38;;;3.20;99.90;;;;;;5098608;28;20447;-69
2022/01/07 05:16:57;;;;;;;11.23;5.20;;;3.20;99.90;;;;;;5098368;28;20134;-69
2022/01/07 05:19:24;;;;;;;9.32;5.53;;;3.20;99.90;;;;;;5095467;28;20047;-70
2022/01/07 05:21:50;;;;;;;6.72;4.82;;;3.20;99.90;;;;;;5081942;28;20066;-70
2022/01/07 05:24:15;;;;;;;8.60;5.05;;;3.20;99.90;;;;;;5099614;28;20035;-72
2022/01/07 05:26:41;;;;;;;7.15;5.13;;;3.20;99.90;;;;;;5113534;27;20371;-70
2022/01/07 05:29:07;;;;;;;7.93;4.90;;;3.30;99.90;;;;;;5102603;27;20071;-70
2022/01/07 05:31:32;;;;;;;7.00;4.65;;;3.30;99.90;;;;;;5102038;27;20049;-70
2022/01/07 05:33:58;;;;;;;8.60;5.00;;;3.30;99.90;;;;;;5102558;27;20134;-70
2022/01/07 05:36:24;;;;;;;9.40;5.53;;;3.30;99.90;;;;;;5101662;27;20447;-68
2022/01/07 05:38:50;;;;;;;6.90;4.95;;;3.30;99.90;;;;;;5119322;27;20066;-69
2022/01/07 05:41:16;;;;;;;8.18;5.25;;;3.30;99.90;;;;;;5136304;27;20055;-70
2022/01/07 05:43:42;;;;;;;7.43;5.55;;;3.30;99.90;;;;;;5119609;27;20046;-71
2022/01/07 05:46:10;;;;;;;9.65;4.97;;;3.30;99.90;;;;;;5118416;27;20031;-70
2022/01/07 05:48:36;;;;;;;7.75;4.53;;;3.30;99.90;;;;;;5119370;27;20031;-70
2022/01/07 05:51:02;;;;;;;7.10;4.15;;;3.30;99.90;;;;;;5102218;27;20131;-70
2022/01/07 05:53:28;;;;;;;7.60;5.07;;;3.50;99.90;;;;;;5119151;27;20489;-70
2022/01/07 05:55:53;;;;;;;8.63;4.97;;;3.50;99.90;;;;;;5096603;27;20047;-70
2022/01/07 05:58:19;;;;;;;7.55;5.18;;;3.50;99.90;;;;;;5116109;27;20149;-70
2022/01/07 06:00:45;;;;;;;6.82;5.13;;;3.40;99.90;;;;;;5114866;27;20053;-69
2022/01/07 06:03:10;;;;;;;9.90;5.93;;;3.50;99.90;;;;;;5087287;28;20404;-70
2022/01/07 06:05:36;;;;;;;7.50;5.18;;;3.40;99.90;;;;;;5113825;27;20031;-71
2022/01/07 06:08:02;;;;;;;7.78;6.18;;;3.50;99.90;;;;;;5098640;27;20031;-71
2022/01/07 06:10:28;;;;;;;10.27;5.63;;;3.50;99.90;;;;;;5097753;27;20071;-69
2022/01/07 06:12:53;;;;;;;8.15;5.63;;;3.50;99.90;;;;;;5118081;27;20039;-69
2022/01/07 06:15:22;;;;;;;8.40;5.57;;;3.50;99.90;;;;;;5091675;27;20054;-71
2022/01/07 06:17:48;;;;;;;11.52;6.43;;;3.50;99.90;;;;;;5098021;28;20478;-68
2022/01/07 06:20:15;;;;;;;8.32;6.45;;;3.50;99.90;;;;;;5089853;27;20035;-68
2022/01/07 06:22:40;;;;;;;9.20;6.22;;;3.50;99.90;;;;;;5118728;27;20039;-69
2022/01/07 06:25:07;;;;;;;8.50;6.10;;;3.50;99.90;;;;;;5117104;27;20433;-68
2022/01/07 06:27:32;;;;;;;8.93;6.18;;;3.50;99.90;;;;;;5101114;27;20489;-68
2022/01/07 06:29:58;;;;;;;7.60;6.45;;;3.50;99.90;;;;;;5117089;27;20793;-68
2022/01/07 06:32:24;;;;;;;9.27;6.53;;;3.50;99.90;;;;;;5116864;27;20061;-68
2022/01/07 06:34:51;;;;;;;8.88;6.65;;;3.50;99.90;;;;;;5117895;27;20039;-66
2022/01/07 06:37:17;;;;;;;11.20;6.80;;;3.50;99.90;;;;;;5117577;27;20046;-68
2022/01/07 06:39:42;;;;;;;9.35;6.82;;;3.50;99.90;;;;;;5117881;27;20050;-68
2022/01/07 06:42:09;;;;;;;10.13;7.22;;;3.50;99.90;;;;;;5118088;27;20376;-67
2022/01/07 06:44:35;;;;;;;9.45;6.43;;;3.50;99.90;;;;;;5117773;27;20046;-68
2022/01/07 06:47:01;;;;;;;13.23;8.20;;;3.50;99.90;;;;;;5115061;27;20035;-69
2022/01/07 06:49:27;;;;;;;11.18;7.70;;;3.50;99.90;;;;;;5134811;27;20027;-68
2022/01/07 06:51:53;;;;;;;12.30;8.35;;;3.60;99.90;;;;;;5103653;28;20067;-68
2022/01/07 06:54:19;;;;;;;11.57;8.52;;;3.60;99.90;;;;;;5115047;27;20058;-68
2022/01/07 06:56:45;;;;;;;12.25;9.02;;;3.70;99.90;;;;;;5115168;27;20032;-68
2022/01/07 06:59:15;;;;;;;14.50;8.88;;;3.70;99.90;;;;;;5112501;27;20410;-66
2022/01/07 07:01:47;;;;;;;14.38;8.77;;;3.70;99.90;;;;;;5113168;27;20154;-69
2022/01/07 07:04:14;;;;;;;12.25;8.52;;;3.70;99.90;;;;;;5100215;27;20348;-67
2022/01/07 07:06:40;;;;;;;13.65;9.23;;;3.70;99.90;;;;;;5083879;28;20051;-68
2022/01/07 07:09:09;;;;;;;13.13;9.23;;;3.80;99.90;;;;;;5115784;28;20414;-68
2022/01/07 07:11:35;;;;;;;14.00;10.07;;;3.80;99.90;;;;;;5114945;27;20142;-69
2022/01/07 07:14:01;;;;;;;15.07;10.05;;;3.90;99.90;;;;;;5117956;27;20051;-69
2022/01/07 07:16:26;;;;;;;13.30;9.75;;;3.90;99.90;;;;;;5107478;28;20052;-69
2022/01/07 07:18:54;;;;;;;13.02;9.77;;;3.90;99.90;;;;;;5086444;27;20035;-71
2022/01/07 07:21:19;;;;;;;15.88;9.80;;;3.90;99.90;;;;;;5101192;27;20205;-68
2022/01/07 07:23:45;;;;;;;14.32;11.23;;;3.90;99.90;;;;;;5132603;27;20039;-68
2022/01/07 07:26:11;;;;;;;14.40;10.63;;;4.00;99.90;;;;;;5128117;27;20032;-68
2022/01/07 07:28:38;;;;;;;15.68;10.13;;;4.00;99.90;;;;;;5101056;27;20035;-69
2022/01/07 07:31:07;;;;;;;17.13;10.95;;;4.10;99.90;;;;;;5116328;27;20058;-69
2022/01/07 07:34:07;;;;;;;17.88;11.80;;;4.00;99.90;;;;;;5092379;28;20058;-68
2022/01/07 07:36:27;;;;;;;18.27;12.30;;;4.10;99.90;;;;;;5069734;27;20047;-68
2022/01/07 07:38:54;;;;;;;16.05;12.07;;;4.00;99.90;;;;;;5084567;27;20508;-69
2022/01/07 07:41:19;;;;;;;24.10;13.23;;;4.00;99.90;;;;;;5116667;27;20047;-69
2022/01/07 07:43:50;;;;;;;19.02;13.05;;;4.00;99.90;;;;;;5099488;27;20049;-68
2022/01/07 07:46:16;;;;;;;16.52;11.38;;;4.00;99.90;;;;;;5107865;27;20043;-69
2022/01/07 07:48:46;;;;;;;19.40;12.20;;;4.10;99.90;;;;;;5117529;27;20047;-69
2022/01/07 07:51:14;;;;;;;18.63;12.45;;;4.10;99.90;;;;;;5117221;27;20054;-68
2022/01/07 07:53:41;;;;;;;19.50;13.20;;;4.10;99.90;;;;;;5117220;27;20049;-68
2022/01/07 07:56:08;;;;;;;24.90;13.82;;;4.00;99.90;;;;;;5103003;28;20529;-68
2022/01/07 07:58:34;;;;;;;19.85;13.57;;;4.00;99.90;;;;;;5111375;27;20432;-68
2022/01/07 08:01:06;;;;;;;17.55;13.77;;;4.10;99.90;;;;;;5098599;27;20071;-69
2022/01/07 08:03:32;;;;;;;23.17;14.48;;;4.10;99.90;;;;;;5099051;27;20031;-69
2022/01/07 08:05:59;;;;;;;22.20;14.00;;;4.10;99.90;;;;;;5099169;27;20043;-68
2022/01/07 08:08:25;;;;;;;22.33;15.40;;;4.10;99.90;;;;;;5116980;27;20039;-68
2022/01/07 08:10:54;;;;;;;23.98;15.02;;;4.10;99.90;;;;;;5084890;28;20044;-69
2022/01/07 08:13:30;;;;;;;21.00;14.45;;;4.10;99.90;;;;;;5096800;28;20079;-68
2022/01/07 08:16:04;;;;;;;19.95;13.70;;;4.00;99.90;;;;;;5076724;28;20050;-69
2022/01/07 08:18:36;;;;;;;20.33;15.10;;;4.10;99.90;;;;;;5087322;28;20118;-69
2022/01/07 08:21:06;;;;;;;23.60;14.23;;;4.10;99.90;;;;;;5095446;28;20051;-69
2022/01/07 08:23:33;;;;;;;26.00;15.68;;;4.10;99.90;;;;;;5080579;28;20055;-68
2022/01/07 08:25:59;;;;;;;22.08;15.50;;;4.20;99.90;;;;;;5075679;28;20040;-70
2022/01/07 08:28:28;;;;;;;22.00;14.68;;;4.20;99.90;;;;;;5079955;28;20031;-70
2022/01/07 08:36:18;;;;;;;22.60;15.73;;;4.30;99.90;;;;;;5095566;28;20126;-70
2022/01/07 08:38:44;;;;;;;29.05;16.70;;;4.40;99.90;;;;;;5079441;28;20047;-70
2022/01/07 08:41:10;;;;;;;25.20;16.70;;;4.40;99.90;;;;;;5095833;28;20075;-70
2022/01/07 08:43:37;;;;;;;22.92;15.57;;;4.40;99.90;;;;;;5095640;28;20647;-70
2022/01/07 08:46:04;;;;;;;28.02;16.80;;;4.50;99.90;;;;;;5067576;28;20119;-71
2022/01/07 08:48:30;;;;;;;21.88;15.73;;;4.50;99.90;;;;;;5087131;28;20048;-70
2022/01/07 08:50:57;;;;;;;28.17;16.90;;;4.60;99.90;;;;;;5110612;28;20135;-70
2022/01/07 08:53:26;;;;;;;24.73;17.08;;;4.60;99.90;;;;;;5079746;28;20042;-70
2022/01/07 08:55:52;;;;;;;23.33;17.30;;;4.70;99.90;;;;;;5075065;28;20114;-70
2022/01/07 08:58:17;;;;;;;24.08;17.65;;;4.70;99.90;;;;;;5092926;28;20405;-70
2022/01/07 09:00:43;;;;;;;24.52;17.38;;;4.80;99.90;;;;;;5082915;28;20093;-70
2022/01/07 09:03:09;;;;;;;28.65;18.08;;;4.80;99.90;;;;;;5084976;28;20047;-69
2022/01/07 09:05:34;;;;;;;29.42;17.92;;;4.80;99.90;;;;;;5095112;28;20042;-69
2022/01/07 09:08:00;;;;;;;25.08;17.05;;;4.90;99.90;;;;;;5082518;28;20063;-69
2022/01/07 09:10:26;;;;;;;25.55;17.20;;;4.90;99.90;;;;;;5099136;28;20032;-70
2022/01/07 09:12:52;;;;;;;23.45;17.17;;;4.90;99.90;;;;;;5089507;28;20039;-71
2022/01/07 09:15:18;;;;;;;28.10;17.85;;;5.00;99.90;;;;;;5074968;28;20048;-69
2022/01/07 09:17:44;;;;;;;31.33;18.58;;;5.00;99.90;;;;;;5104490;28;20141;-69
2022/01/07 09:20:11;;;;;;;31.70;17.95;;;5.00;99.90;;;;;;5117873;27;20055;-70
2022/01/07 09:22:38;;;;;;;25.55;15.98;;;5.00;99.90;;;;;;5101993;27;20039;-69
2022/01/07 09:25:05;;;;;;;29.27;17.85;;;5.00;99.90;;;;;;5119753;27;20027;-69
2022/01/07 09:27:32;;;;;;;27.98;17.05;;;5.10;99.90;;;;;;5120813;27;20087;-70
2022/01/07 09:29:58;;;;;;;26.90;17.77;;;5.10;99.90;;;;;;5121220;27;20034;-68
2022/01/07 09:32:23;;;;;;;27.88;17.52;;;5.10;99.90;;;;;;5101328;27;20047;-68
2022/01/07 09:34:49;;;;;;;28.30;16.65;;;5.10;99.90;;;;;;5135437;27;20039;-68
2022/01/07 09:37:15;;;;;;;27.60;15.27;;;5.00;99.90;;;;;;5131018;27;20050;-68
2022/01/07 09:39:40;;;;;;;22.90;16.48;;;5.00;99.90;;;;;;5118629;27;20054;-69
2022/01/07 09:42:07;;;;;;;25.33;17.25;;;5.10;99.90;;;;;;5128565;27;20039;-69
2022/01/07 09:44:40;;;;;;;20.45;15.52;;;5.00;99.90;;;;;;5121303;27;20034;-69
2022/01/07 09:47:07;;;;;;;18.88;13.00;;;5.00;99.90;;;;;;5104972;27;20071;-68
2022/01/07 09:49:34;;;;;;;24.02;13.60;;;5.10;99.90;;;;;;5134569;27;20073;-69
2022/01/07 09:52:04;;;;;;;21.75;13.68;;;5.10;99.90;;;;;;5135616;27;20046;-69
2022/01/07 09:54:31;;;;;;;20.20;13.10;;;5.20;99.90;;;;;;5127268;27;20471;-69
2022/01/07 09:56:57;;;;;;;15.90;9.73;;;5.20;99.90;;;;;;5138206;27;20034;-68
2022/01/07 09:59:22;;;;;;;14.77;8.02;;;5.20;99.90;;;;;;5138885;27;20461;-68
2022/01/07 10:01:59;;;;;;;9.10;4.97;;;5.20;99.90;;;;;;5137833;27;20050;-68
2022/01/07 10:04:37;;;;;;;9.32;4.25;;;5.30;99.90;;;;;;5118022;27;20372;-69
2022/01/07 10:07:21;;;;;;;9.90;3.88;;;5.10;99.90;;;;;;5131791;27;20034;-70
2022/01/07 10:10:14;;;;;;;7.63;3.92;;;5.00;99.90;;;;;;5139214;27;20090;-67
2022/01/07 10:13:00;;;;;;;9.27;4.18;;;4.90;99.90;;;;;;5138282;27;20126;-67
2022/01/07 10:15:35;;;;;;;12.63;4.13;;;4.90;99.90;;;;;;5137698;27;20054;-68
2022/01/07 10:18:07;;;;;;;9.20;3.92;;;5.00;99.90;;;;;;5125371;27;20073;-68
2022/01/07 10:20:40;;;;;;;8.48;3.92;;;5.00;99.90;;;;;;5137772;27;20043;-69
2022/01/07 10:23:09;;;;;;;10.55;4.38;;;5.00;99.90;;;;;;5102514;27;20053;-69
2022/01/07 10:25:41;;;;;;;10.70;5.82;;;5.00;99.90;;;;;;5135922;27;20039;-69
2022/01/07 10:28:16;;;;;;;14.40;8.82;;;5.00;99.90;;;;;;5122121;27;20039;-69
2022/01/07 10:30:47;;;;;;;14.73;10.93;;;5.10;99.90;;;;;;5123627;27;20089;-69
2022/01/07 10:33:20;;;;;;;17.75;11.32;;;5.10;99.90;;;;;;5138349;27;20462;-69
2022/01/07 10:35:48;;;;;;;17.20;11.35;;;5.10;99.90;;;;;;5122413;27;20080;-69
2022/01/07 10:38:17;;;;;;;16.98;10.80;;;5.10;99.90;;;;;;5121879;27;20047;-69
2022/01/07 10:40:43;;;;;;;18.50;11.98;;;5.10;99.90;;;;;;5120548;27;20099;-69
2022/01/07 10:43:25;;;;;;;19.00;13.80;;;5.20;99.90;;;;;;5122194;27;20082;-68
2022/01/07 10:46:12;;;;;;;20.70;14.07;;;5.20;99.90;;;;;;5124774;27;20450;-69
2022/01/07 10:48:53;;;;;;;22.40;14.20;;;5.20;99.90;;;;;;5132959;27;20035;-68
2022/01/07 10:51:23;;;;;;;20.10;14.02;;;5.30;99.90;;;;;;5130307;27;20047;-68
2022/01/07 10:53:52;;;;;;;21.17;13.80;;;5.30;99.90;;;;;;5105312;27;20035;-68
2022/01/07 10:56:20;;;;;;;21.35;13.30;;;5.40;99.90;;;;;;5127163;27;20463;-69
2022/01/07 10:58:55;;;;;;;17.90;11.82;;;5.40;99.90;;;;;;5138759;27;20053;-69
2022/01/07 11:01:20;;;;;;;19.65;9.57;;;5.50;99.90;;;;;;5121246;27;20125;-68
2022/01/07 11:03:52;;;;;;;11.25;7.43;;;5.70;99.90;;;;;;5131889;27;20077;-72
2022/01/07 11:06:18;;;;;;;17.95;6.20;;;5.60;99.90;;;;;;5131934;27;20027;-68
2022/01/07 11:08:47;;;;;;;12.20;4.55;;;5.60;99.90;;;;;;5101310;27;20479;-68
2022/01/07 11:11:13;;;;;;;8.30;3.13;;;5.60;99.90;;;;;;5122600;27;20043;-69
2022/01/07 11:13:43;;;;;;;6.03;2.67;;;5.50;99.90;;;;;;5108176;27;20031;-68
2022/01/07 11:16:10;;;;;;;4.70;1.85;;;5.50;99.90;;;;;;5097335;28;20081;-69
2022/01/07 11:18:38;;;;;;;7.32;2.33;;;5.40;99.90;;;;;;5095865;28;20114;-70
2022/01/07 11:21:05;;;;;;;4.60;1.83;;;5.40;99.90;;;;;;5093585;28;20118;-68
2022/01/07 11:23:32;;;;;;;3.80;1.63;;;5.30;99.90;;;;;;5113321;28;20081;-68
2022/01/07 11:26:05;;;;;;;6.80;1.85;;;5.30;99.90;;;;;;5094441;28;20166;-69
2022/01/07 11:28:31;;;;;;;5.20;1.60;;;5.30;99.90;;;;;;5112165;28;20071;-70
2022/01/07 11:31:04;;;;;;;4.75;1.60;;;5.20;99.90;;;;;;5112974;28;20048;-70
2022/01/07 11:33:32;;;;;;;3.80;1.45;;;5.10;99.90;;;;;;5113744;28;20132;-69
2022/01/07 11:35:57;;;;;;;7.32;1.63;;;5.00;99.90;;;;;;5113477;28;20114;-70
2022/01/07 11:38:34;;;;;;;6.50;1.67;;;5.00;99.90;;;;;;5111196;28;20115;-68
2022/01/07 11:41:00;;;;;;;4.88;1.67;;;5.00;99.90;;;;;;5111456;28;20043;-70
2022/01/07 11:43:35;;;;;;;7.00;1.48;;;4.80;99.90;;;;;;5112526;28;20546;-69
2022/01/07 11:46:25;;;;;;;5.63;1.25;;;4.90;99.90;;;;;;5111886;28;20047;-70
2022/01/07 11:48:52;;;;;;;6.95;1.48;;;4.90;99.90;;;;;;5084419;28;20088;-68
2022/01/07 11:51:18;;;;;;;5.40;1.52;;;4.90;99.90;;;;;;5094799;28;20050;-70
2022/01/07 11:53:50;;;;;;;5.63;1.40;;;4.90;99.90;;;;;;5112582;28;20031;-69
2022/01/07 11:56:25;;;;;;;7.30;1.17;;;4.90;99.90;;;;;;5104643;28;20350;-70
2022/01/07 11:58:57;;;;;;;5.65;1.08;;;4.90;99.90;;;;;;5112538;28;20043;-70
2022/01/07 12:01:36;;;;;;;4.28;1.17;;;4.90;99.90;;;;;;5109690;28;20436;-70
2022/01/07 12:04:28;;;;;;;8.13;1.20;;;4.90;99.90;;;;;;5112621;28;20141;-69
2022/01/07 12:06:57;;;;;;;3.90;1.05;;;4.80;99.90;;;;;;5081920;28;20052;-69
2022/01/07 12:09:31;;;;;;;4.78;1.30;;;4.70;99.90;;;;;;5094654;28;20039;-69
2022/01/07 12:12:01;;;;;;;10.25;2.38;;;4.70;99.90;;;;;;5094984;28;20036;-69
2022/01/07 12:14:35;;;;;;;7.72;1.70;;;4.70;99.90;;;;;;5098557;27;20058;-69
2022/01/07 12:17:02;;;;;;;7.63;1.50;;;4.70;99.90;;;;;;5113352;27;20345;-70
2022/01/07 12:19:28;;;;;;;7.22;2.08;;;4.70;99.90;;;;;;5135973;27;20049;-69
2022/01/07 12:21:59;;;;;;;8.88;2.33;;;4.70;99.90;;;;;;5118561;27;20046;-69
2022/01/07 12:24:27;;;;;;;7.50;1.85;;;4.70;99.90;;;;;;5127584;27;20023;-66
2022/01/07 12:27:20;;;;;;;8.45;2.53;;;4.70;99.90;;;;;;5125185;27;20063;-69
2022/01/07 12:29:48;;;;;;;6.38;1.65;;;4.80;99.90;;;;;;5110868;27;20368;-70
2022/01/07 12:32:16;;;;;;;5.47;2.00;;;4.90;99.90;;;;;;5136378;27;20057;-69
2022/01/07 12:34:45;;;;;;;8.45;2.20;;;4.90;99.90;;;;;;5114905;28;20050;-70
2022/01/07 12:37:19;;;;;;;7.80;2.33;;;4.90;99.90;;;;;;5117451;28;20475;-70
2022/01/07 12:39:54;;;;;;;9.03;3.00;;;5.00;99.90;;;;;;5116932;28;20039;-70
2022/01/07 12:42:21;;;;;;;10.98;3.65;;;5.10;99.90;;;;;;5116628;27;20049;-71
2022/01/07 12:44:54;;;;;;;9.77;3.38;;;5.20;99.90;;;;;;5119665;27;20113;-69
2022/01/07 12:47:26;;;;;;;10.82;4.03;;;5.30;99.90;;;;;;5126710;27;20042;-71
2022/01/07 12:50:04;;;;;;;9.90;4.10;;;5.30;99.90;;;;;;5113820;27;20171;-69
2022/01/07 12:52:37;;;;;;;8.40;4.18;;;5.30;99.90;;;;;;5120478;28;20039;-69
2022/01/07 12:55:12;;;;;;;10.40;4.20;;;5.30;99.90;;;;;;5132466;27;20031;-68
2022/01/07 12:57:46;;;;;;;11.35;4.22;;;5.40;99.90;;;;;;5115920;27;20043;-68